Rockdale, Texas
Current Conditions -  °F | °C
As of 9:35 PM on Monday 20 Oct 2014 (Local Time) from KT35 Reporting Station
Clear Clear  
Wind Chill: 20°   Ceiling: Unl
Heat Index: 20°   Visibility: 10mi
Dew Point: 16°   Wind: 0mph
Humidity: 75%   Direction: NA
Pressure: 30.04"   Gusts: NA
Location:  30.66°N, 97°W
Report Text: KT35 210235Z AUTO 00000KT 10SM CLR 21/16 A3004 RMK AO2 T02050160
Loading
Personal Weather Stations






























Interactive Weather Map
Tropical Storm Tracking
New forecast layout! Learn more

10-Day Weather Forecast

Advertisements
Track Severe Weather on mobile